createdAt,value
2023-01-20T00:00:52.682Z,51.33
2023-01-20T00:03:42.414Z,54.63
2023-01-20T00:06:30.638Z,50.13
2023-01-20T00:09:18.035Z,53.75
2023-01-20T00:12:04.102Z,53.33
2023-01-20T00:14:54.051Z,46.55
2023-01-20T00:17:39.801Z,44.53
2023-01-20T00:20:25.749Z,40.03
2023-01-20T00:23:11.411Z,41.00
2023-01-20T00:26:24.154Z,31.25
2023-01-20T00:29:10.174Z,30.42
2023-01-20T00:31:56.250Z,29.83
2023-01-20T00:34:41.803Z,25.02
2023-01-20T00:37:33.007Z,25.40
2023-01-20T00:40:18.622Z,25.40
2023-01-20T00:43:04.153Z,26.45
2023-01-20T00:46:05.652Z,22.88
2023-01-20T00:48:52.214Z,21.98
2023-01-20T00:51:38.317Z,22.42
2023-01-20T00:54:24.156Z,29.63
2023-01-20T00:57:13.135Z,30.58
2023-01-20T00:59:59.122Z,47.85
2023-01-20T01:02:44.815Z,54.45
2023-01-20T01:05:39.516Z,40.42
2023-01-20T01:08:25.705Z,27.20
2023-01-20T01:11:13.654Z,24.02
2023-01-20T01:14:02.659Z,19.70
2023-01-20T01:16:48.335Z,26.40
2023-01-20T01:19:34.134Z,25.35
2023-01-20T01:22:55.602Z,25.00
2023-01-20T01:25:41.754Z,18.80
2023-01-20T01:28:32.556Z,26.35
2023-01-20T01:31:19.125Z,28.50
2023-01-20T01:34:04.755Z,24.23
2023-01-20T01:36:58.906Z,30.13
2023-01-20T01:39:44.542Z,30.50
2023-01-20T01:42:30.303Z,50.47
2023-01-20T01:45:21.820Z,62.03
2023-01-20T01:48:10.398Z,71.57
2023-01-20T01:51:03.512Z,71.57
2023-01-20T01:53:54.018Z,64.57
2023-01-20T01:56:41.870Z,62.90
2023-01-20T01:59:30.760Z,55.45
2023-01-20T02:02:17.210Z,54.22
2023-01-20T02:05:24.459Z,53.20
2023-01-20T02:08:10.575Z,54.90
2023-01-20T02:10:56.278Z,54.05
2023-01-20T02:14:15.108Z,52.67
2023-01-20T02:17:27.765Z,57.15
2023-01-20T02:21:10.891Z,53.50
2023-01-20T02:24:24.540Z,38.80
2023-01-20T02:28:05.261Z,28.45
2023-01-20T02:31:21.731Z,28.33
2023-01-20T02:34:23.926Z,24.75
2023-01-20T02:37:11.522Z,25.38
2023-01-20T02:40:22.773Z,21.23
2023-01-20T02:43:23.539Z,24.55
2023-01-20T02:46:23.324Z,25.17
2023-01-20T02:49:21.678Z,22.75
2023-01-20T02:52:12.430Z,30.45
2023-01-20T02:55:09.390Z,27.45
2023-01-20T02:58:00.888Z,28.50
2023-01-20T03:01:02.376Z,30.38
2023-01-20T03:04:05.455Z,30.75
2023-01-20T03:06:53.593Z,35.10
2023-01-20T03:09:46.153Z,32.25
2023-01-20T03:12:38.316Z,34.40
2023-01-20T03:15:42.931Z,30.65
2023-01-20T03:18:29.795Z,37.03
2023-01-20T03:21:16.744Z,29.98
2023-01-20T03:24:04.053Z,30.95
2023-01-20T03:26:52.204Z,26.35
2023-01-20T03:29:40.877Z,26.60
2023-01-20T03:32:27.166Z,25.77
2023-01-20T03:35:17.692Z,23.45
2023-01-20T03:38:03.372Z,22.30
2023-01-20T03:41:14.945Z,19.50
2023-01-20T03:44:37.453Z,20.38
2023-01-20T03:47:46.789Z,28.65
2023-01-20T03:51:01.449Z,26.38
2023-01-20T03:54:01.629Z,25.15
2023-01-20T03:57:09.039Z,31.33
2023-01-20T03:59:54.950Z,26.15
2023-01-20T04:02:41.442Z,27.42
2023-01-20T04:05:29.339Z,26.25
2023-01-20T04:08:17.122Z,27.25
2023-01-20T04:11:07.464Z,27.05
2023-01-20T04:13:54.068Z,27.55
2023-01-20T04:16:40.258Z,27.35
2023-01-20T04:19:28.166Z,25.60
2023-01-20T04:22:28.014Z,27.63
2023-01-20T04:25:17.834Z,26.38
2023-01-20T04:28:04.518Z,22.17
2023-01-20T04:30:50.912Z,25.42
2023-01-20T04:33:38.420Z,30.10
2023-01-20T04:36:33.291Z,27.38
2023-01-20T04:39:19.518Z,19.75
2023-01-20T04:42:05.396Z,24.33
2023-01-20T04:44:53.143Z,21.48
2023-01-20T04:47:38.981Z,24.13
2023-01-20T04:50:24.657Z,22.85
2023-01-20T04:53:16.888Z,24.73
2023-01-20T04:56:04.113Z,27.55
2023-01-20T04:59:08.428Z,28.55
2023-01-20T05:01:54.583Z,29.52
2023-01-20T05:04:40.688Z,33.72
2023-01-20T05:07:26.515Z,26.95
2023-01-20T05:10:13.282Z,31.20
2023-01-20T05:13:07.689Z,29.05
2023-01-20T05:15:53.267Z,26.77
2023-01-20T05:18:39.407Z,25.63
2023-01-20T05:21:26.638Z,29.65
2023-01-20T05:24:12.590Z,28.20
2023-01-20T05:27:01.073Z,25.10
2023-01-20T05:30:21.797Z,24.60
2023-01-20T05:33:07.477Z,27.35
2023-01-20T05:35:55.984Z,23.80
2023-01-20T05:38:41.816Z,30.05
2023-01-20T05:41:27.525Z,30.88
2023-01-20T05:44:14.399Z,30.63
2023-01-20T05:47:06.675Z,36.00
2023-01-20T05:49:52.364Z,32.92
2023-01-20T05:52:38.133Z,29.92
2023-01-20T05:55:26.155Z,24.08
2023-01-20T05:58:12.151Z,24.88
2023-01-20T06:01:09.244Z,25.98
2023-01-20T06:03:55.044Z,24.45
2023-01-20T06:06:48.173Z,22.02
2023-01-20T06:09:33.841Z,18.83
2023-01-20T06:12:19.705Z,16.50
2023-01-20T06:15:06.274Z,18.67
2023-01-20T06:17:52.664Z,12.77
2023-01-20T06:20:38.947Z,17.08
2023-01-20T06:23:25.758Z,13.52
2023-01-20T06:26:12.993Z,22.63
2023-01-20T06:29:00.725Z,9.68
2023-01-20T06:31:47.354Z,9.68
2023-01-20T06:34:33.089Z,9.18
2023-01-20T06:37:19.682Z,3.10
2023-01-20T06:40:06.036Z,6.90
2023-01-20T06:42:51.712Z,12.32
2023-01-20T06:45:38.466Z,12.55
2023-01-20T06:48:24.473Z,10.85
2023-01-20T06:51:13.416Z,12.68
2023-01-20T06:53:59.907Z,14.68
2023-01-20T06:56:45.881Z,13.35
2023-01-20T06:59:31.799Z,10.00
2023-01-20T07:02:17.745Z,11.05
2023-01-20T07:05:04.681Z,8.50
2023-01-20T07:07:50.791Z,7.00
2023-01-20T07:10:36.977Z,6.40
2023-01-20T07:13:23.197Z,7.70
2023-01-20T07:16:11.468Z,8.32
2023-01-20T07:18:58.645Z,6.38
2023-01-20T07:21:44.341Z,11.50
2023-01-20T07:24:30.010Z,12.77
2023-01-20T07:27:15.734Z,15.43
2023-01-20T07:30:01.386Z,14.15
2023-01-20T07:32:47.008Z,11.30
2023-01-20T07:35:33.019Z,16.65
2023-01-20T07:38:18.769Z,20.10
2023-01-20T07:41:07.523Z,13.25
2023-01-20T07:43:54.418Z,15.15
2023-01-20T07:46:40.393Z,14.38
2023-01-20T07:49:26.237Z,17.75
2023-01-20T07:52:13.231Z,20.05
2023-01-20T07:54:59.141Z,13.13
2023-01-20T07:57:44.855Z,5.82
2023-01-20T08:00:30.630Z,4.10
2023-01-20T08:03:16.459Z,1.77
2023-01-20T08:06:13.642Z,2.38
2023-01-20T08:09:01.662Z,3.15
2023-01-20T08:11:48.262Z,4.50
2023-01-20T08:14:35.665Z,2.92
2023-01-20T08:17:23.526Z,1.25
2023-01-20T08:20:10.625Z,4.03
2023-01-20T08:22:56.349Z,2.17
2023-01-20T08:26:02.117Z,2.75
2023-01-20T08:28:48.215Z,2.38
2023-01-20T08:31:38.627Z,4.10
2023-01-20T08:34:24.571Z,2.33
2023-01-20T08:37:13.210Z,1.50
2023-01-20T08:39:58.875Z,6.18
2023-01-20T08:51:55.506Z,5.03
2023-01-20T08:54:41.277Z,6.05
2023-01-20T08:57:27.265Z,4.65
2023-01-20T09:00:16.463Z,2.65
2023-01-20T09:03:02.251Z,2.13
2023-01-20T09:05:50.390Z,34.63
2023-01-20T09:08:37.305Z,5.38
2023-01-20T09:11:27.675Z,3.53
2023-01-20T09:14:49.649Z,3.05
2023-01-20T09:17:36.208Z,23.23
2023-01-20T09:20:24.800Z,16.67
2023-01-20T09:23:10.659Z,3.97
2023-01-20T09:26:34.192Z,5.07
2023-01-20T09:32:06.507Z,4.18
2023-01-20T09:34:53.168Z,8.48
2023-01-20T09:41:46.888Z,4.68
2023-01-20T09:45:42.597Z,8.98
2023-01-20T09:49:09.085Z,4.65
2023-01-20T09:52:35.462Z,3.60
2023-01-20T09:56:01.478Z,4.00
2023-01-20T10:03:38.211Z,2.00
2023-01-20T10:06:33.973Z,2.45
2023-01-20T10:09:54.568Z,2.55
2023-01-20T10:12:44.516Z,2.63
2023-01-20T10:15:32.369Z,3.47
2023-01-20T10:18:52.760Z,5.97
2023-01-20T10:21:43.916Z,3.08
2023-01-20T10:24:32.702Z,4.60
2023-01-20T10:27:24.662Z,3.28
2023-01-20T10:30:13.102Z,5.53
2023-01-20T10:33:04.163Z,6.85
2023-01-20T10:35:55.236Z,2.05
2023-01-20T10:39:26.901Z,2.80
2023-01-20T10:43:33.017Z,2.72
2023-01-20T10:52:27.496Z,2.45
2023-01-20T10:55:19.367Z,5.18
2023-01-20T10:58:27.969Z,4.25
2023-01-20T11:01:17.129Z,10.45
2023-01-20T11:04:03.016Z,6.47
2023-01-20T11:06:55.424Z,5.30
2023-01-20T11:09:43.624Z,4.28
2023-01-20T11:12:33.204Z,3.63
2023-01-20T11:19:47.237Z,11.90
2023-01-20T11:22:37.196Z,3.78
2023-01-20T11:25:27.506Z,5.80
2023-01-20T11:28:18.276Z,5.70
2023-01-20T11:31:04.643Z,3.03
2023-01-20T11:34:02.381Z,3.40
2023-01-20T11:36:49.810Z,3.42
2023-01-20T11:39:42.374Z,3.28
2023-01-20T11:42:31.747Z,5.00
2023-01-20T11:45:36.341Z,3.30
2023-01-20T11:48:23.003Z,4.13
2023-01-20T11:51:50.178Z,3.85
2023-01-20T11:54:37.241Z,2.80
2023-01-20T11:57:23.233Z,3.17
2023-01-20T12:00:38.181Z,3.97
2023-01-20T12:03:48.307Z,4.50
2023-01-20T12:07:02.825Z,2.75
2023-01-20T12:09:52.934Z,3.13
2023-01-20T12:13:11.499Z,3.38
2023-01-20T12:16:01.327Z,8.15
2023-01-20T12:19:01.565Z,3.75
2023-01-20T12:21:52.658Z,3.00
2023-01-20T12:25:08.705Z,3.10
2023-01-20T12:28:11.058Z,4.07
2023-01-20T12:31:02.304Z,2.08
2023-01-20T12:33:59.047Z,2.00
2023-01-20T12:36:55.099Z,10.98
2023-01-20T12:40:05.031Z,29.48
2023-01-20T12:43:15.081Z,5.03
2023-01-20T12:46:30.373Z,5.15
2023-01-20T12:49:59.955Z,3.38
2023-01-20T12:52:49.110Z,2.90
2023-01-20T12:55:52.700Z,2.40
2023-01-20T12:59:17.254Z,2.55
2023-01-20T13:02:37.679Z,7.72
2023-01-20T13:05:58.259Z,12.38
2023-01-20T13:08:52.376Z,5.55
